sensor_id;sensor_type;location;lat;lon;timestamp;pressure;altitude;pressure_sealevel;temperature;humidity
55687;BME280;41911;52.362;4.978;2023-05-01T00:00:28;101873.69;;;13.29;38.31
55687;BME280;41911;52.362;4.978;2023-05-01T00:00:59;101874.21;;;13.14;37.98
55687;BME280;41911;52.362;4.978;2023-05-01T00:01:29;101873.96;;;13.14;37.61
55687;BME280;41911;52.362;4.978;2023-05-01T00:02:00;101872.94;;;13.17;37.89
55687;BME280;41911;52.362;4.978;2023-05-01T00:02:31;101870.90;;;12.98;37.86
55687;BME280;41911;52.362;4.978;2023-05-01T00:03:02;101868.65;;;13.19;37.80
55687;BME280;41911;52.362;4.978;2023-05-01T00:03:33;101867.67;;;13.43;38.04
55687;BME280;41911;52.362;4.978;2023-05-01T00:04:04;101867.48;;;13.00;37.81
55687;BME280;41911;52.362;4.978;2023-05-01T00:04:35;101866.71;;;13.16;37.30
55687;BME280;41911;52.362;4.978;2023-05-01T00:05:07;101865.20;;;13.41;37.78
55687;BME280;41911;52.362;4.978;2023-05-01T00:05:38;101864.95;;;13.20;37.75
55687;BME280;41911;52.362;4.978;2023-05-01T00:06:09;101866.17;;;13.32;38.12
55687;BME280;41911;52.362;4.978;2023-05-01T00:06:39;101862.09;;;13.01;38.79
55687;BME280;41911;52.362;4.978;2023-05-01T00:07:10;101861.90;;;13.33;38.32
55687;BME280;41911;52.362;4.978;2023-05-01T00:07:41;101863.30;;;13.42;37.62
55687;BME280;41911;52.362;4.978;2023-05-01T00:08:12;101864.78;;;12.87;37.70
55687;BME280;41911;52.362;4.978;2023-05-01T00:08:43;101863.68;;;12.79;38.05
55687;BME280;41911;52.362;4.978;2023-05-01T00:09:14;101863.87;;;13.51;37.50
55687;BME280;41911;52.362;4.978;2023-05-01T00:09:45;101865.11;;;13.48;37.99
55687;BME280;41911;52.362;4.978;2023-05-01T00:10:16;101863.47;;;12.97;37.90
55687;BME280;41911;52.362;4.978;2023-05-01T00:10:47;101861.62;;;13.00;37.58
55687;BME280;41911;52.362;4.978;2023-05-01T00:11:18;101861.81;;;13.28;37.63
55687;BME280;41911;52.362;4.978;2023-05-01T00:11:49;101861.94;;;13.37;37.80
55687;BME280;41911;52.362;4.978;2023-05-01T00:12:19;101862.84;;;13.05;38.18
55687;BME280;41911;52.362;4.978;2023-05-01T00:12:50;101862.04;;;13.38;38.00
55687;BME280;41911;52.362;4.978;2023-05-01T00:13:21;101859.74;;;12.82;37.19
55687;BME280;41911;52.362;4.978;2023-05-01T00:13:52;101862.86;;;13.09;37.58
55687;BME280;41911;52.362;4.978;2023-05-01T00:14:23;101861.83;;;13.23;37.65
55687;BME280;41911;52.362;4.978;2023-05-01T00:14:54;101860.83;;;13.26;37.74
55687;BME280;41911;52.362;4.978;2023-05-01T00:15:25;101859.72;;;13.27;37.38
55687;BME280;41911;52.362;4.978;2023-05-01T00:15:56;101857.34;;;12.85;37.85
55687;BME280;41911;52.362;4.978;2023-05-01T00:16:27;101855.83;;;13.28;36.74
55687;BME280;41911;52.362;4.978;2023-05-01T00:16:58;101857.19;;;12.94;37.43
55687;BME280;41911;52.362;4.978;2023-05-01T00:17:29;101857.00;;;13.43;36.95
55687;BME280;41911;52.362;4.978;2023-05-01T00:18:01;101858.37;;;13.13;36.83
55687;BME280;41911;52.362;4.978;2023-05-01T00:18:32;101856.30;;;13.11;37.54
55687;BME280;41911;52.362;4.978;2023-05-01T00:19:03;101858.48;;;12.88;37.24
55687;BME280;41911;52.362;4.978;2023-05-01T00:19:33;101858.96;;;12.74;37.15
55687;BME280;41911;52.362;4.978;2023-05-01T00:20:06;101856.77;;;13.08;38.31
55687;BME280;41911;52.362;4.978;2023-05-01T00:20:37;101856.93;;;13.29;36.78
55687;BME280;41911;52.362;4.978;2023-05-01T00:21:08;101858.53;;;13.01;37.52
55687;BME280;41911;52.362;4.978;2023-05-01T00:21:39;101854.43;;;12.68;37.74
55687;BME280;41911;52.362;4.978;2023-05-01T00:22:10;101856.91;;;12.71;37.88
55687;BME280;41911;52.362;4.978;2023-05-01T00:22:41;101854.51;;;13.02;38.42
55687;BME280;41911;52.362;4.978;2023-05-01T00:23:12;101854.20;;;13.03;37.68
55687;BME280;41911;52.362;4.978;2023-05-01T00:23:43;101855.57;;;13.03;37.20
55687;BME280;41911;52.362;4.978;2023-05-01T00:24:14;101852.39;;;12.98;37.57
55687;BME280;41911;52.362;4.978;2023-05-01T00:24:45;101850.17;;;13.05;37.89
55687;BME280;41911;52.362;4.978;2023-05-01T00:25:16;101850.62;;;13.06;37.77
55687;BME280;41911;52.362;4.978;2023-05-01T00:25:47;101849.94;;;12.95;37.06
55687;BME280;41911;52.362;4.978;2023-05-01T00:26:18;101848.70;;;12.92;37.75
55687;BME280;41911;52.362;4.978;2023-05-01T00:26:48;101848.66;;;12.92;38.11
55687;BME280;41911;52.362;4.978;2023-05-01T00:27:19;101849.01;;;12.93;38.01
55687;BME280;41911;52.362;4.978;2023-05-01T00:27:50;101848.95;;;12.97;37.64
55687;BME280;41911;52.362;4.978;2023-05-01T00:28:21;101849.41;;;13.08;37.52
55687;BME280;41911;52.362;4.978;2023-05-01T00:28:52;101847.74;;;12.67;37.21
55687;BME280;41911;52.362;4.978;2023-05-01T00:29:23;101847.85;;;12.70;37.49
55687;BME280;41911;52.362;4.978;2023-05-01T00:29:54;101846.88;;;12.99;37.87
55687;BME280;41911;52.362;4.978;2023-05-01T00:30:25;101843.41;;;12.65;37.35
55687;BME280;41911;52.362;4.978;2023-05-01T00:30:56;101842.20;;;12.69;37.81
55687;BME280;41911;52.362;4.978;2023-05-01T00:31:27;101842.96;;;12.62;37.73
55687;BME280;41911;52.362;4.978;2023-05-01T00:31:58;101842.79;;;12.98;37.59
55687;BME280;41911;52.362;4.978;2023-05-01T00:32:29;101844.64;;;13.28;37.66
55687;BME280;41911;52.362;4.978;2023-05-01T00:33:00;101845.84;;;12.92;37.94
55687;BME280;41911;52.362;4.978;2023-05-01T00:33:31;101844.10;;;12.91;37.18
55687;BME280;41911;52.362;4.978;2023-05-01T00:34:02;101841.77;;;12.86;37.85
55687;BME280;41911;52.362;4.978;2023-05-01T00:34:32;101842.19;;;12.97;36.75
55687;BME280;41911;52.362;4.978;2023-05-01T00:35:04;101841.27;;;12.75;37.32
55687;BME280;41911;52.362;4.978;2023-05-01T00:35:35;101843.30;;;12.68;37.81
55687;BME280;41911;52.362;4.978;2023-05-01T00:36:06;101841.64;;;12.65;38.91
55687;BME280;41911;52.362;4.978;2023-05-01T00:36:37;101840.86;;;12.81;38.32
55687;BME280;41911;52.362;4.978;2023-05-01T00:37:08;101841.45;;;12.94;37.95
55687;BME280;41911;52.362;4.978;2023-05-01T00:37:39;101840.02;;;12.54;39.23
55687;BME280;41911;52.362;4.978;2023-05-01T00:38:10;101840.25;;;12.61;38.75
55687;BME280;41911;52.362;4.978;2023-05-01T00:38:41;101841.03;;;12.67;38.81
55687;BME280;41911;52.362;4.978;2023-05-01T00:39:11;101842.17;;;13.02;38.30
55687;BME280;41911;52.362;4.978;2023-05-01T00:39:42;101840.54;;;12.79;37.26
55687;BME280;41911;52.362;4.978;2023-05-01T00:40:13;101838.28;;;13.10;38.39
55687;BME280;41911;52.362;4.978;2023-05-01T00:40:44;101839.08;;;12.83;38.14
55687;BME280;41911;52.362;4.978;2023-05-01T00:41:16;101837.03;;;12.84;38.42
55687;BME280;41911;52.362;4.978;2023-05-01T00:41:46;101837.23;;;12.89;37.97
55687;BME280;41911;52.362;4.978;2023-05-01T00:42:17;101836.37;;;12.82;37.48
55687;BME280;41911;52.362;4.978;2023-05-01T00:42:48;101834.99;;;12.77;37.80
55687;BME280;41911;52.362;4.978;2023-05-01T00:43:19;101833.81;;;12.78;38.18
55687;BME280;41911;52.362;4.978;2023-05-01T00:43:50;101836.13;;;12.83;38.36
55687;BME280;41911;52.362;4.978;2023-05-01T00:44:21;101834.44;;;13.13;37.93
55687;BME280;41911;52.362;4.978;2023-05-01T00:44:52;101832.22;;;12.87;37.87
55687;BME280;41911;52.362;4.978;2023-05-01T00:45:24;101831.25;;;12.87;37.83
55687;BME280;41911;52.362;4.978;2023-05-01T00:45:55;101832.61;;;12.92;38.31
55687;BME280;41911;52.362;4.978;2023-05-01T00:46:27;101831.16;;;12.95;38.06
55687;BME280;41911;52.362;4.978;2023-05-01T00:46:58;101829.24;;;12.66;37.92
55687;BME280;41911;52.362;4.978;2023-05-01T00:47:29;101831.49;;;12.89;37.77
55687;BME280;41911;52.362;4.978;2023-05-01T00:48:00;101829.46;;;12.90;38.02
55687;BME280;41911;52.362;4.978;2023-05-01T00:48:31;101827.90;;;12.66;38.12
55687;BME280;41911;52.362;4.978;2023-05-01T00:49:02;101827.04;;;12.91;38.44
55687;BME280;41911;52.362;4.978;2023-05-01T00:49:34;101825.70;;;12.88;38.12
55687;BME280;41911;52.362;4.978;2023-05-01T00:50:06;101826.87;;;12.98;37.86
55687;BME280;41911;52.362;4.978;2023-05-01T00:50:37;101824.88;;;12.97;38.36
55687;BME280;41911;52.362;4.978;2023-05-01T00:51:09;101823.04;;;12.87;37.88
55687;BME280;41911;52.362;4.978;2023-05-01T00:51:40;101822.14;;;12.88;38.11
55687;BME280;41911;52.362;4.978;2023-05-01T00:52:12;101821.40;;;12.63;38.70
55687;BME280;41911;52.362;4.978;2023-05-01T00:52:43;101822.25;;;12.61;37.84
55687;BME280;41911;52.362;4.978;2023-05-01T00:53:15;101821.72;;;12.62;38.44
55687;BME280;41911;52.362;4.978;2023-05-01T00:53:46;101820.79;;;13.00;38.17
55687;BME280;41911;52.362;4.978;2023-05-01T00:54:17;101821.99;;;12.58;38.62
55687;BME280;41911;52.362;4.978;2023-05-01T00:54:48;101821.67;;;12.90;38.61
55687;BME280;41911;52.362;4.978;2023-05-01T00:55:19;101821.70;;;12.72;38.71
55687;BME280;41911;52.362;4.978;2023-05-01T00:55:52;101820.46;;;12.40;38.68
55687;BME280;41911;52.362;4.978;2023-05-01T00:56:24;101821.12;;;12.70;38.49
55687;BME280;41911;52.362;4.978;2023-05-01T00:56:55;101820.70;;;12.99;37.91
55687;BME280;41911;52.362;4.978;2023-05-01T00:57:26;101820.98;;;12.92;37.22
55687;BME280;41911;52.362;4.978;2023-05-01T00:57:57;101819.03;;;12.57;37.06
55687;BME280;41911;52.362;4.978;2023-05-01T00:58:28;101819.50;;;12.84;37.31
55687;BME280;41911;52.362;4.978;2023-05-01T00:59:00;101817.84;;;12.78;37.66
55687;BME280;41911;52.362;4.978;2023-05-01T00:59:31;101817.74;;;12.76;38.22
55687;BME280;41911;52.362;4.978;2023-05-01T01:00:02;101819.12;;;12.78;38.45
55687;BME280;41911;52.362;4.978;2023-05-01T01:00:33;101817.02;;;12.81;37.87
55687;BME280;41911;52.362;4.978;2023-05-01T01:01:04;101818.22;;;12.91;37.66
55687;BME280;41911;52.362;4.978;2023-05-01T01:01:35;101817.14;;;12.87;37.40
55687;BME280;41911;52.362;4.978;2023-05-01T01:02:06;101816.58;;;12.83;37.83
55687;BME280;41911;52.362;4.978;2023-05-01T01:02:37;101816.75;;;12.83;38.45
55687;BME280;41911;52.362;4.978;2023-05-01T01:03:08;101816.97;;;12.81;38.27
55687;BME280;41911;52.362;4.978;2023-05-01T01:03:40;101815.69;;;12.56;38.46
55687;BME280;41911;52.362;4.978;2023-05-01T01:04:10;101816.33;;;12.87;38.86
55687;BME280;41911;52.362;4.978;2023-05-01T01:04:43;101815.39;;;12.86;38.46
55687;BME280;41911;52.362;4.978;2023-05-01T01:05:15;101815.01;;;12.75;38.74
55687;BME280;41911;52.362;4.978;2023-05-01T01:05:50;101813.46;;;12.84;39.08
55687;BME280;41911;52.362;4.978;2023-05-01T01:06:31;101812.87;;;12.80;38.63
55687;BME280;41911;52.362;4.978;2023-05-01T01:07:10;101811.77;;;12.80;38.61
55687;BME280;41911;52.362;4.978;2023-05-01T01:07:48;101811.51;;;12.84;39.13
55687;BME280;41911;52.362;4.978;2023-05-01T01:08:28;101807.34;;;12.73;38.67
55687;BME280;41911;52.362;4.978;2023-05-01T01:09:19;101807.20;;;12.46;38.01
55687;BME280;41911;52.362;4.978;2023-05-01T01:10:01;101805.24;;;12.78;38.62
55687;BME280;41911;52.362;4.978;2023-05-01T01:10:39;101803.43;;;12.79;39.14
55687;BME280;41911;52.362;4.978;2023-05-01T01:11:23;101801.72;;;12.80;38.96
55687;BME280;41911;52.362;4.978;2023-05-01T01:12:06;101802.55;;;12.78;38.62
55687;BME280;41911;52.362;4.978;2023-05-01T01:13:03;101799.75;;;12.45;38.52
55687;BME280;41911;52.362;4.978;2023-05-01T01:13:38;101797.94;;;12.77;38.26
55687;BME280;41911;52.362;4.978;2023-05-01T01:14:16;101797.48;;;12.73;38.94
55687;BME280;41911;52.362;4.978;2023-05-01T01:14:54;101797.19;;;12.61;38.54
55687;BME280;41911;52.362;4.978;2023-05-01T01:15:43;101794.34;;;12.58;38.81
55687;BME280;41911;52.362;4.978;2023-05-01T01:16:22;101793.43;;;12.65;38.81
55687;BME280;41911;52.362;4.978;2023-05-01T01:16:58;101795.86;;;12.56;39.23
55687;BME280;41911;52.362;4.978;2023-05-01T01:17:44;101792.64;;;12.24;38.46
55687;BME280;41911;52.362;4.978;2023-05-01T01:18:25;101790.73;;;12.58;38.68
55687;BME280;41911;52.362;4.978;2023-05-01T01:19:11;101788.60;;;12.57;38.55
55687;BME280;41911;52.362;4.978;2023-05-01T01:20:01;101788.03;;;12.59;38.56
55687;BME280;41911;52.362;4.978;2023-05-01T01:20:38;101788.08;;;12.28;38.86
55687;BME280;41911;52.362;4.978;2023-05-01T01:21:15;101787.74;;;11.98;38.90
55687;BME280;41911;52.362;4.978;2023-05-01T01:21:52;101786.75;;;12.57;38.80
55687;BME280;41911;52.362;4.978;2023-05-01T01:22:26;101784.69;;;12.49;38.88
55687;BME280;41911;52.362;4.978;2023-05-01T01:23:12;101783.32;;;12.58;39.28
55687;BME280;41911;52.362;4.978;2023-05-01T01:24:44;101781.95;;;12.56;38.88
55687;BME280;41911;52.362;4.978;2023-05-01T01:25:36;101779.23;;;12.49;38.53
55687;BME280;41911;52.362;4.978;2023-05-01T01:26:26;101779.33;;;12.59;39.50
55687;BME280;41911;52.362;4.978;2023-05-01T01:27:47;101776.34;;;12.54;39.02
55687;BME280;41911;52.362;4.978;2023-05-01T01:28:46;101774.77;;;12.48;38.40
55687;BME280;41911;52.362;4.978;2023-05-01T01:29:40;101769.59;;;12.47;38.80
55687;BME280;41911;52.362;4.978;2023-05-01T01:30:33;101767.08;;;12.39;39.01
55687;BME280;41911;52.362;4.978;2023-05-01T01:31:10;101770.21;;;12.49;38.55
55687;BME280;41911;52.362;4.978;2023-05-01T01:31:52;101769.26;;;12.47;38.87
55687;BME280;41911;52.362;4.978;2023-05-01T01:32:55;101767.57;;;12.49;39.00
55687;BME280;41911;52.362;4.978;2023-05-01T01:33:48;101766.49;;;12.46;38.71
55687;BME280;41911;52.362;4.978;2023-05-01T01:34:24;101767.06;;;12.46;38.86
55687;BME280;41911;52.362;4.978;2023-05-01T01:35:00;101767.33;;;12.46;38.85
55687;BME280;41911;52.362;4.978;2023-05-01T01:35:33;101763.69;;;12.48;38.50
55687;BME280;41911;52.362;4.978;2023-05-01T01:36:10;101765.57;;;12.46;38.51
55687;BME280;41911;52.362;4.978;2023-05-01T01:36:48;101762.77;;;12.45;38.61
55687;BME280;41911;52.362;4.978;2023-05-01T01:37:23;101759.30;;;12.44;38.42
55687;BME280;41911;52.362;4.978;2023-05-01T01:38:02;101758.04;;;11.90;38.52
55687;BME280;41911;52.362;4.978;2023-05-01T01:38:39;101759.40;;;12.48;38.61
55687;BME280;41911;52.362;4.978;2023-05-01T01:39:23;101756.85;;;12.45;38.76
55687;BME280;41911;52.362;4.978;2023-05-01T01:40:02;101756.00;;;12.40;38.39
55687;BME280;41911;52.362;4.978;2023-05-01T01:40:44;101755.33;;;12.67;38.94
55687;BME280;41911;52.362;4.978;2023-05-01T01:41:25;101753.07;;;12.76;38.95
55687;BME280;41911;52.362;4.978;2023-05-01T01:42:04;101751.57;;;12.67;38.58
55687;BME280;41911;52.362;4.978;2023-05-01T01:42:40;101752.42;;;12.40;39.04
55687;BME280;41911;52.362;4.978;2023-05-01T01:43:18;101750.95;;;12.40;38.65
55687;BME280;41911;52.362;4.978;2023-05-01T01:44:08;101749.63;;;12.11;38.51
55687;BME280;41911;52.362;4.978;2023-05-01T01:44:45;101747.13;;;12.38;38.86
55687;BME280;41911;52.362;4.978;2023-05-01T01:45:21;101747.43;;;12.35;38.58
55687;BME280;41911;52.362;4.978;2023-05-01T01:45:58;101745.74;;;12.33;38.30
55687;BME280;41911;52.362;4.978;2023-05-01T01:46:36;101743.42;;;12.25;38.81
55687;BME280;41911;52.362;4.978;2023-05-01T01:47:10;101744.27;;;12.32;38.52
55687;BME280;41911;52.362;4.978;2023-05-01T01:47:42;101744.10;;;12.34;39.00
55687;BME280;41911;52.362;4.978;2023-05-01T01:48:16;101741.74;;;12.32;38.89
55687;BME280;41911;52.362;4.978;2023-05-01T01:48:49;101741.75;;;12.40;38.85
55687;BME280;41911;52.362;4.978;2023-05-01T01:49:24;101741.69;;;12.34;38.82
55687;BME280;41911;52.362;4.978;2023-05-01T01:49:58;101740.85;;;12.41;38.86
55687;BME280;41911;52.362;4.978;2023-05-01T01:50:31;101742.58;;;12.44;38.80
55687;BME280;41911;52.362;4.978;2023-05-01T01:51:07;101739.21;;;12.64;39.08
55687;BME280;41911;52.362;4.978;2023-05-01T01:51:39;101739.97;;;12.34;38.86
55687;BME280;41911;52.362;4.978;2023-05-01T01:52:13;101737.98;;;12.34;38.57
55687;BME280;41911;52.362;4.978;2023-05-01T01:52:46;101735.41;;;12.27;38.23
55687;BME280;41911;52.362;4.978;2023-05-01T01:53:19;101737.37;;;12.25;38.94
55687;BME280;41911;52.362;4.978;2023-05-01T01:53:53;101734.80;;;12.26;38.54
55687;BME280;41911;52.362;4.978;2023-05-01T01:54:30;101733.21;;;12.28;38.61
55687;BME280;41911;52.362;4.978;2023-05-01T01:55:05;101731.86;;;12.28;38.06
55687;BME280;41911;52.362;4.978;2023-05-01T01:55:39;101733.40;;;12.13;37.95
55687;BME280;41911;52.362;4.978;2023-05-01T01:56:13;101732.31;;;12.29;38.45
55687;BME280;41911;52.362;4.978;2023-05-01T01:56:48;101729.17;;;12.15;39.12
55687;BME280;41911;52.362;4.978;2023-05-01T01:57:20;101730.58;;;12.12;38.03
55687;BME280;41911;52.362;4.978;2023-05-01T01:57:53;101727.31;;;12.00;39.07
55687;BME280;41911;52.362;4.978;2023-05-01T01:58:26;101726.51;;;12.05;38.70
55687;BME280;41911;52.362;4.978;2023-05-01T01:59:00;101727.34;;;12.03;38.90
55687;BME280;41911;52.362;4.978;2023-05-01T01:59:33;101724.54;;;12.08;39.00
55687;BME280;41911;52.362;4.978;2023-05-01T02:00:05;101724.31;;;11.96;38.52
55687;BME280;41911;52.362;4.978;2023-05-01T02:00:40;101725.08;;;12.24;37.95
55687;BME280;41911;52.362;4.978;2023-05-01T02:01:18;101721.21;;;11.98;38.68
55687;BME280;41911;52.362;4.978;2023-05-01T02:01:52;101722.11;;;12.24;38.32
55687;BME280;41911;52.362;4.978;2023-05-01T02:02:25;101720.16;;;12.21;38.68
55687;BME280;41911;52.362;4.978;2023-05-01T02:02:58;101720.86;;;11.96;38.59
55687;BME280;41911;52.362;4.978;2023-05-01T02:03:30;101720.24;;;11.99;38.77
55687;BME280;41911;52.362;4.978;2023-05-01T02:04:03;101720.11;;;12.10;38.42
55687;BME280;41911;52.362;4.978;2023-05-01T02:04:35;101717.11;;;12.27;38.40
55687;BME280;41911;52.362;4.978;2023-05-01T02:05:10;101717.42;;;11.95;39.03
55687;BME280;41911;52.362;4.978;2023-05-01T02:05:42;101716.66;;;11.95;38.58
55687;BME280;41911;52.362;4.978;2023-05-01T02:06:16;101715.91;;;12.27;38.68
55687;BME280;41911;52.362;4.978;2023-05-01T02:06:48;101716.30;;;12.31;38.46
55687;BME280;41911;52.362;4.978;2023-05-01T02:07:19;101713.92;;;11.96;38.55
55687;BME280;41911;52.362;4.978;2023-05-01T02:07:51;101713.14;;;12.21;38.29
55687;BME280;41911;52.362;4.978;2023-05-01T02:08:24;101710.91;;;12.12;38.11
55687;BME280;41911;52.362;4.978;2023-05-01T02:08:57;101712.71;;;11.87;38.34
55687;BME280;41911;52.362;4.978;2023-05-01T02:09:29;101709.64;;;11.81;38.97
55687;BME280;41911;52.362;4.978;2023-05-01T02:10:00;101708.22;;;12.22;38.52
55687;BME280;41911;52.362;4.978;2023-05-01T02:10:34;101709.31;;;11.89;38.32
55687;BME280;41911;52.362;4.978;2023-05-01T02:11:07;101706.89;;;11.83;38.13
55687;BME280;41911;52.362;4.978;2023-05-01T02:11:39;101707.41;;;12.19;37.85
55687;BME280;41911;52.362;4.978;2023-05-01T02:12:11;101707.41;;;11.75;38.11
55687;BME280;41911;52.362;4.978;2023-05-01T02:12:45;101706.62;;;12.01;38.30
55687;BME280;41911;52.362;4.978;2023-05-01T02:13:19;101707.01;;;11.96;38.72
55687;BME280;41911;52.362;4.978;2023-05-01T02:13:51;101704.22;;;12.00;38.36
55687;BME280;41911;52.362;4.978;2023-05-01T02:14:25;101704.42;;;12.09;38.38
55687;BME280;41911;52.362;4.978;2023-05-01T02:14:57;101705.43;;;12.42;38.01
55687;BME280;41911;52.362;4.978;2023-05-01T02:15:29;101704.73;;;12.04;38.14
55687;BME280;41911;52.362;4.978;2023-05-01T02:16:02;101703.68;;;11.84;38.03
55687;BME280;41911;52.362;4.978;2023-05-01T02:16:35;101705.33;;;12.10;38.53
55687;BME280;41911;52.362;4.978;2023-05-01T02:17:08;101702.55;;;11.87;38.57
55687;BME280;41911;52.362;4.978;2023-05-01T02:17:40;101704.31;;;11.83;38.77
55687;BME280;41911;52.362;4.978;2023-05-01T02:18:12;101700.55;;;12.32;39.24
55687;BME280;41911;52.362;4.978;2023-05-01T02:18:45;101700.34;;;12.11;39.15
55687;BME280;41911;52.362;4.978;2023-05-01T02:19:17;101702.83;;;12.11;38.42
55687;BME280;41911;52.362;4.978;2023-05-01T02:19:49;101700.49;;;12.13;38.76
55687;BME280;41911;52.362;4.978;2023-05-01T02:20:21;101697.99;;;12.22;38.89
55687;BME280;41911;52.362;4.978;2023-05-01T02:20:53;101697.83;;;12.17;38.70
55687;BME280;41911;52.362;4.978;2023-05-01T02:21:26;101699.23;;;11.94;38.04
55687;BME280;41911;52.362;4.978;2023-05-01T02:21:59;101697.60;;;12.23;38.41
55687;BME280;41911;52.362;4.978;2023-05-01T02:22:30;101696.92;;;12.01;38.50
55687;BME280;41911;52.362;4.978;2023-05-01T02:23:02;101695.22;;;12.27;38.46
55687;BME280;41911;52.362;4.978;2023-05-01T02:23:35;101696.10;;;11.98;38.93
55687;BME280;41911;52.362;4.978;2023-05-01T02:24:08;101695.20;;;12.22;39.08
55687;BME280;41911;52.362;4.978;2023-05-01T02:24:41;101693.68;;;11.90;38.31
55687;BME280;41911;52.362;4.978;2023-05-01T02:25:14;101690.72;;;12.22;38.64
55687;BME280;41911;52.362;4.978;2023-05-01T02:25:46;101692.11;;;11.97;38.88
55687;BME280;41911;52.362;4.978;2023-05-01T02:26:21;101690.32;;;12.55;39.04
55687;BME280;41911;52.362;4.978;2023-05-01T02:26:57;101690.45;;;11.93;38.75
55687;BME280;41911;52.362;4.978;2023-05-01T02:27:35;101687.54;;;12.17;38.74
55687;BME280;41911;52.362;4.978;2023-05-01T02:28:09;101684.79;;;12.18;39.26
55687;BME280;41911;52.362;4.978;2023-05-01T02:28:42;101686.62;;;11.92;39.08
55687;BME280;41911;52.362;4.978;2023-05-01T02:29:13;101684.73;;;11.90;39.19
55687;BME280;41911;52.362;4.978;2023-05-01T02:29:44;101683.06;;;12.20;39.13
55687;BME280;41911;52.362;4.978;2023-05-01T02:30:16;101681.77;;;12.25;39.00
55687;BME280;41911;52.362;4.978;2023-05-01T02:30:47;101681.72;;;12.16;39.29
55687;BME280;41911;52.362;4.978;2023-05-01T02:31:18;101679.97;;;11.88;39.35
55687;BME280;41911;52.362;4.978;2023-05-01T02:31:49;101677.70;;;11.88;39.45
55687;BME280;41911;52.362;4.978;2023-05-01T02:32:20;101677.52;;;11.83;39.27
55687;BME280;41911;52.362;4.978;2023-05-01T02:32:51;101675.70;;;11.53;39.47
55687;BME280;41911;52.362;4.978;2023-05-01T02:33:23;101676.39;;;12.17;39.34
55687;BME280;41911;52.362;4.978;2023-05-01T02:33:54;101673.85;;;12.11;39.23
55687;BME280;41911;52.362;4.978;2023-05-01T02:34:25;101675.54;;;12.18;39.40
55687;BME280;41911;52.362;4.978;2023-05-01T02:34:56;101675.59;;;12.30;38.68
55687;BME280;41911;52.362;4.978;2023-05-01T02:35:27;101674.39;;;12.16;39.43
55687;BME280;41911;52.362;4.978;2023-05-01T02:35:58;101672.44;;;11.80;39.50
55687;BME280;41911;52.362;4.978;2023-05-01T02:36:29;101673.08;;;11.91;39.19
55687;BME280;41911;52.362;4.978;2023-05-01T02:37:00;101671.36;;;11.94;39.22
55687;BME280;41911;52.362;4.978;2023-05-01T02:37:31;101670.05;;;11.95;39.19
55687;BME280;41911;52.362;4.978;2023-05-01T02:38:02;101671.47;;;11.94;38.94
55687;BME280;41911;52.362;4.978;2023-05-01T02:38:34;101668.18;;;12.02;38.83
55687;BME280;41911;52.362;4.978;2023-05-01T02:39:05;101667.65;;;11.74;39.37
55687;BME280;41911;52.362;4.978;2023-05-01T02:39:36;101664.74;;;12.16;39.40
55687;BME280;41911;52.362;4.978;2023-05-01T02:40:10;101664.63;;;12.09;39.11
55687;BME280;41911;52.362;4.978;2023-05-01T02:40:45;101664.63;;;12.08;39.00
55687;BME280;41911;52.362;4.978;2023-05-01T02:41:19;101664.58;;;12.10;39.15
55687;BME280;41911;52.362;4.978;2023-05-01T02:41:53;101663.41;;;11.78;39.01
55687;BME280;41911;52.362;4.978;2023-05-01T02:42:27;101664.79;;;11.70;39.32
55687;BME280;41911;52.362;4.978;2023-05-01T02:43:00;101664.35;;;12.07;39.53
55687;BME280;41911;52.362;4.978;2023-05-01T02:43:35;101663.75;;;11.80;39.71
55687;BME280;41911;52.362;4.978;2023-05-01T02:44:09;101662.38;;;12.06;39.40
55687;BME280;41911;52.362;4.978;2023-05-01T02:44:46;101665.63;;;12.07;38.61
55687;BME280;41911;52.362;4.978;2023-05-01T02:45:21;101661.71;;;11.98;38.95
55687;BME280;41911;52.362;4.978;2023-05-01T02:45:54;101665.12;;;11.71;40.63
55687;BME280;41911;52.362;4.978;2023-05-01T02:46:27;101663.83;;;11.96;39.71
55687;BME280;41911;52.362;4.978;2023-05-01T02:46:59;101659.53;;;11.73;39.86
55687;BME280;41911;52.362;4.978;2023-05-01T02:47:34;101662.05;;;11.92;40.28
55687;BME280;41911;52.362;4.978;2023-05-01T02:48:08;101662.41;;;11.89;40.12
55687;BME280;41911;52.362;4.978;2023-05-01T02:48:41;101662.13;;;11.69;39.14
55687;BME280;41911;52.362;4.978;2023-05-01T02:49:13;101661.82;;;12.06;39.42
55687;BME280;41911;52.362;4.978;2023-05-01T02:49:44;101660.36;;;11.62;39.85
55687;BME280;41911;52.362;4.978;2023-05-01T02:50:16;101656.72;;;11.66;40.06
55687;BME280;41911;52.362;4.978;2023-05-01T02:50:47;101656.25;;;11.61;40.48
55687;BME280;41911;52.362;4.978;2023-05-01T02:51:20;101657.38;;;11.96;40.77
55687;BME280;41911;52.362;4.978;2023-05-01T02:51:52;101655.58;;;11.99;39.62
55687;BME280;41911;52.362;4.978;2023-05-01T02:52:24;101653.90;;;11.89;40.62
55687;BME280;41911;52.362;4.978;2023-05-01T02:52:55;101652.11;;;11.61;38.81
55687;BME280;41911;52.362;4.978;2023-05-01T02:53:27;101653.12;;;11.97;40.17
55687;BME280;41911;52.362;4.978;2023-05-01T02:53:59;101649.43;;;12.19;40.06
55687;BME280;41911;52.362;4.978;2023-05-01T02:54:30;101649.05;;;11.63;40.67
55687;BME280;41911;52.362;4.978;2023-05-01T02:55:01;101647.02;;;11.89;40.77
55687;BME280;41911;52.362;4.978;2023-05-01T02:55:32;101647.10;;;11.84;40.65
55687;BME280;41911;52.362;4.978;2023-05-01T02:56:04;101647.35;;;11.93;40.48
55687;BME280;41911;52.362;4.978;2023-05-01T02:56:35;101642.40;;;11.59;40.33
55687;BME280;41911;52.362;4.978;2023-05-01T02:57:06;101642.18;;;11.93;40.37
55687;BME280;41911;52.362;4.978;2023-05-01T02:57:37;101642.31;;;11.64;41.12
55687;BME280;41911;52.362;4.978;2023-05-01T02:58:14;101639.35;;;11.93;41.24